sensor_id;sensor_type;location;lat;lon;timestamp;temperature;humidity
13389;DHT22;6764;53.250;10.410;2024-03-29T00:01:59;9.10;99.90
13389;DHT22;6764;53.250;10.410;2024-03-29T00:04:25;9.00;99.90
13389;DHT22;6764;53.250;10.410;2024-03-29T00:06:50;9.10;99.90
13389;DHT22;6764;53.250;10.410;2024-03-29T00:09:16;9.10;99.90
13389;DHT22;6764;53.250;10.410;2024-03-29T00:11:41;9.00;99.90
13389;DHT22;6764;53.250;10.410;2024-03-29T00:14:07;9.00;99.90
13389;DHT22;6764;53.250;10.410;2024-03-29T00:16:33;9.00;99.90
13389;DHT22;6764;53.250;10.410;2024-03-29T00:18:58;9.00;99.90
13389;DHT22;6764;53.250;10.410;2024-03-29T00:21:24;9.00;99.90
13389;DHT22;6764;53.250;10.410;2024-03-29T00:23:49;9.00;99.90
13389;DHT22;6764;53.250;10.410;2024-03-29T00:26:16;8.90;99.90
13389;DHT22;6764;53.250;10.410;2024-03-29T00:28:42;9.00;99.90
13389;DHT22;6764;53.250;10.410;2024-03-29T00:31:08;8.80;99.90
13389;DHT22;6764;53.250;10.410;2024-03-29T00:33:34;8.80;99.90
13389;DHT22;6764;53.250;10.410;2024-03-29T00:35:59;8.80;99.90
13389;DHT22;6764;53.250;10.410;2024-03-29T00:38:25;8.80;99.90
13389;DHT22;6764;53.250;10.410;2024-03-29T00:40:51;8.80;99.90
13389;DHT22;6764;53.250;10.410;2024-03-29T00:43:16;8.80;99.90
13389;DHT22;6764;53.250;10.410;2024-03-29T00:45:42;8.80;99.90
13389;DHT22;6764;53.250;10.410;2024-03-29T00:48:07;8.70;99.90
13389;DHT22;6764;53.250;10.410;2024-03-29T00:50:33;8.70;99.90
13389;DHT22;6764;53.250;10.410;2024-03-29T00:52:59;8.70;99.90
13389;DHT22;6764;53.250;10.410;2024-03-29T00:55:25;8.70;99.90
13389;DHT22;6764;53.250;10.410;2024-03-29T00:57:51;8.80;99.90
13389;DHT22;6764;53.250;10.410;2024-03-29T01:00:16;8.70;99.90
13389;DHT22;6764;53.250;10.410;2024-03-29T01:02:42;8.70;99.90
13389;DHT22;6764;53.250;10.410;2024-03-29T01:05:08;8.70;99.90
13389;DHT22;6764;53.250;10.410;2024-03-29T01:07:34;8.70;99.90
13389;DHT22;6764;53.250;10.410;2024-03-29T01:10:00;8.60;99.90
13389;DHT22;6764;53.250;10.410;2024-03-29T01:12:26;8.50;99.90
13389;DHT22;6764;53.250;10.410;2024-03-29T01:14:51;8.50;99.90
13389;DHT22;6764;53.250;10.410;2024-03-29T01:17:17;8.50;99.90
13389;DHT22;6764;53.250;10.410;2024-03-29T01:19:43;8.50;99.90
13389;DHT22;6764;53.250;10.410;2024-03-29T01:22:09;8.40;99.90
13389;DHT22;6764;53.250;10.410;2024-03-29T01:24:35;8.50;99.90
13389;DHT22;6764;53.250;10.410;2024-03-29T01:27:00;8.50;99.90
13389;DHT22;6764;53.250;10.410;2024-03-29T01:29:27;8.50;99.90
13389;DHT22;6764;53.250;10.410;2024-03-29T01:31:53;8.50;99.90
13389;DHT22;6764;53.250;10.410;2024-03-29T01:34:18;8.30;99.90
13389;DHT22;6764;53.250;10.410;2024-03-29T01:36:44;8.30;99.90
13389;DHT22;6764;53.250;10.410;2024-03-29T01:39:10;8.20;99.90
13389;DHT22;6764;53.250;10.410;2024-03-29T01:41:39;8.30;99.90
13389;DHT22;6764;53.250;10.410;2024-03-29T01:44:05;8.30;99.90
13389;DHT22;6764;53.250;10.410;2024-03-29T01:46:31;8.30;99.90
13389;DHT22;6764;53.250;10.410;2024-03-29T01:49:00;8.20;99.90
13389;DHT22;6764;53.250;10.410;2024-03-29T01:51:25;8.20;99.90
13389;DHT22;6764;53.250;10.410;2024-03-29T01:53:53;8.20;99.90
13389;DHT22;6764;53.250;10.410;2024-03-29T01:56:23;8.20;99.90
13389;DHT22;6764;53.250;10.410;2024-03-29T01:58:51;8.20;99.90
13389;DHT22;6764;53.250;10.410;2024-03-29T02:01:19;8.00;99.90
13389;DHT22;6764;53.250;10.410;2024-03-29T02:03:45;8.00;99.90
13389;DHT22;6764;53.250;10.410;2024-03-29T02:06:14;8.00;99.90
13389;DHT22;6764;53.250;10.410;2024-03-29T02:08:41;7.90;99.90
13389;DHT22;6764;53.250;10.410;2024-03-29T02:11:07;7.90;99.90
13389;DHT22;6764;53.250;10.410;2024-03-29T02:13:32;7.90;99.90
13389;DHT22;6764;53.250;10.410;2024-03-29T02:15:58;7.80;99.90
13389;DHT22;6764;53.250;10.410;2024-03-29T02:18:24;7.80;99.90
13389;DHT22;6764;53.250;10.410;2024-03-29T02:20:49;7.80;99.90
13389;DHT22;6764;53.250;10.410;2024-03-29T02:23:19;7.80;99.90
13389;DHT22;6764;53.250;10.410;2024-03-29T02:25:45;7.80;99.90
13389;DHT22;6764;53.250;10.410;2024-03-29T02:28:13;7.80;99.90
13389;DHT22;6764;53.250;10.410;2024-03-29T02:30:38;7.70;99.90
13389;DHT22;6764;53.250;10.410;2024-03-29T02:33:04;7.60;99.90
13389;DHT22;6764;53.250;10.410;2024-03-29T02:35:30;7.70;99.90
13389;DHT22;6764;53.250;10.410;2024-03-29T02:37:56;7.80;99.90
13389;DHT22;6764;53.250;10.410;2024-03-29T02:40:22;7.80;99.90
13389;DHT22;6764;53.250;10.410;2024-03-29T02:42:48;7.60;99.90
13389;DHT22;6764;53.250;10.410;2024-03-29T02:45:14;7.60;99.90
13389;DHT22;6764;53.250;10.410;2024-03-29T02:47:39;7.70;99.90
13389;DHT22;6764;53.250;10.410;2024-03-29T02:50:07;7.60;99.90
13389;DHT22;6764;53.250;10.410;2024-03-29T02:52:33;7.70;99.90
13389;DHT22;6764;53.250;10.410;2024-03-29T02:54:59;7.60;99.90
13389;DHT22;6764;53.250;10.410;2024-03-29T02:57:24;7.60;99.90
13389;DHT22;6764;53.250;10.410;2024-03-29T02:59:50;7.60;99.90
13389;DHT22;6764;53.250;10.410;2024-03-29T03:02:15;7.70;99.90
13389;DHT22;6764;53.250;10.410;2024-03-29T03:04:41;7.70;99.90
13389;DHT22;6764;53.250;10.410;2024-03-29T03:07:07;7.70;99.90
13389;DHT22;6764;53.250;10.410;2024-03-29T03:09:51;7.70;99.90
13389;DHT22;6764;53.250;10.410;2024-03-29T03:12:35;7.70;99.90
13389;DHT22;6764;53.250;10.410;2024-03-29T03:15:01;7.70;99.90
13389;DHT22;6764;53.250;10.410;2024-03-29T03:17:27;7.80;99.90
13389;DHT22;6764;53.250;10.410;2024-03-29T03:19:53;7.80;99.90
13389;DHT22;6764;53.250;10.410;2024-03-29T03:22:19;7.80;99.90
13389;DHT22;6764;53.250;10.410;2024-03-29T03:24:45;7.80;99.90
13389;DHT22;6764;53.250;10.410;2024-03-29T03:27:10;7.70;99.90
13389;DHT22;6764;53.250;10.410;2024-03-29T03:29:36;7.70;99.90
13389;DHT22;6764;53.250;10.410;2024-03-29T03:32:02;7.70;99.90
13389;DHT22;6764;53.250;10.410;2024-03-29T03:34:28;7.70;99.90
13389;DHT22;6764;53.250;10.410;2024-03-29T03:36:53;7.60;99.90
13389;DHT22;6764;53.250;10.410;2024-03-29T03:39:19;7.60;99.90
13389;DHT22;6764;53.250;10.410;2024-03-29T03:41:44;7.60;99.90
13389;DHT22;6764;53.250;10.410;2024-03-29T03:44:10;7.60;99.90
13389;DHT22;6764;53.250;10.410;2024-03-29T03:46:35;7.60;99.90
13389;DHT22;6764;53.250;10.410;2024-03-29T03:49:01;7.60;99.90
13389;DHT22;6764;53.250;10.410;2024-03-29T03:51:27;7.60;99.90
13389;DHT22;6764;53.250;10.410;2024-03-29T03:53:52;7.70;99.90
13389;DHT22;6764;53.250;10.410;2024-03-29T03:56:18;7.70;99.90
13389;DHT22;6764;53.250;10.410;2024-03-29T03:58:44;7.70;99.90
13389;DHT22;6764;53.250;10.410;2024-03-29T04:01:10;7.60;99.90
13389;DHT22;6764;53.250;10.410;2024-03-29T04:03:35;7.60;99.90
13389;DHT22;6764;53.250;10.410;2024-03-29T04:06:04;7.60;99.90
13389;DHT22;6764;53.250;10.410;2024-03-29T04:08:31;7.60;99.90
13389;DHT22;6764;53.250;10.410;2024-03-29T04:10:56;7.60;99.90
13389;DHT22;6764;53.250;10.410;2024-03-29T04:13:22;7.60;99.90
13389;DHT22;6764;53.250;10.410;2024-03-29T04:15:47;7.50;99.90
13389;DHT22;6764;53.250;10.410;2024-03-29T04:18:13;7.50;99.90
13389;DHT22;6764;53.250;10.410;2024-03-29T04:20:39;7.50;99.90
13389;DHT22;6764;53.250;10.410;2024-03-29T04:23:05;7.60;99.90
13389;DHT22;6764;53.250;10.410;2024-03-29T04:25:31;7.60;99.90
13389;DHT22;6764;53.250;10.410;2024-03-29T04:27:58;7.70;99.90
13389;DHT22;6764;53.250;10.410;2024-03-29T04:30:24;7.70;99.90
13389;DHT22;6764;53.250;10.410;2024-03-29T04:32:50;7.70;99.90
13389;DHT22;6764;53.250;10.410;2024-03-29T04:35:15;7.70;99.90
13389;DHT22;6764;53.250;10.410;2024-03-29T04:37:41;7.70;99.90
13389;DHT22;6764;53.250;10.410;2024-03-29T04:40:07;7.70;99.90
13389;DHT22;6764;53.250;10.410;2024-03-29T04:42:33;7.70;99.90
13389;DHT22;6764;53.250;10.410;2024-03-29T04:44:58;7.70;99.90
13389;DHT22;6764;53.250;10.410;2024-03-29T04:47:24;7.60;99.90
13389;DHT22;6764;53.250;10.410;2024-03-29T04:49:50;7.60;99.90
13389;DHT22;6764;53.250;10.410;2024-03-29T04:52:15;7.50;99.90
13389;DHT22;6764;53.250;10.410;2024-03-29T04:54:42;7.60;99.90
13389;DHT22;6764;53.250;10.410;2024-03-29T04:57:09;7.60;99.90
13389;DHT22;6764;53.250;10.410;2024-03-29T04:59:35;7.60;99.90
13389;DHT22;6764;53.250;10.410;2024-03-29T05:02:01;7.60;99.90
13389;DHT22;6764;53.250;10.410;2024-03-29T05:04:27;7.70;99.90
13389;DHT22;6764;53.250;10.410;2024-03-29T05:06:59;7.80;99.90
13389;DHT22;6764;53.250;10.410;2024-03-29T05:09:25;7.80;99.90
13389;DHT22;6764;53.250;10.410;2024-03-29T05:11:51;7.60;99.90
13389;DHT22;6764;53.250;10.410;2024-03-29T05:14:19;7.70;99.90
13389;DHT22;6764;53.250;10.410;2024-03-29T05:16:45;7.70;99.90
13389;DHT22;6764;53.250;10.410;2024-03-29T05:19:12;7.60;99.90
13389;DHT22;6764;53.250;10.410;2024-03-29T05:21:37;7.60;99.90
13389;DHT22;6764;53.250;10.410;2024-03-29T05:24:03;7.70;99.90
13389;DHT22;6764;53.250;10.410;2024-03-29T05:26:29;7.70;99.90
13389;DHT22;6764;53.250;10.410;2024-03-29T05:28:56;7.70;99.90
13389;DHT22;6764;53.250;10.410;2024-03-29T05:31:23;7.80;99.90
13389;DHT22;6764;53.250;10.410;2024-03-29T05:33:50;7.70;99.90
13389;DHT22;6764;53.250;10.410;2024-03-29T05:36:15;7.80;99.90
13389;DHT22;6764;53.250;10.410;2024-03-29T05:38:41;7.80;99.90
13389;DHT22;6764;53.250;10.410;2024-03-29T05:41:07;7.80;99.90
13389;DHT22;6764;53.250;10.410;2024-03-29T05:43:33;8.00;99.90
13389;DHT22;6764;53.250;10.410;2024-03-29T05:45:58;7.90;99.90
13389;DHT22;6764;53.250;10.410;2024-03-29T05:48:26;8.00;99.90
13389;DHT22;6764;53.250;10.410;2024-03-29T05:50:52;8.00;99.90
13389;DHT22;6764;53.250;10.410;2024-03-29T05:53:18;8.10;99.90
13389;DHT22;6764;53.250;10.410;2024-03-29T05:55:43;8.20;99.90
13389;DHT22;6764;53.250;10.410;2024-03-29T05:58:09;8.30;99.90
13389;DHT22;6764;53.250;10.410;2024-03-29T06:00:35;8.30;99.90
13389;DHT22;6764;53.250;10.410;2024-03-29T06:03:01;8.40;99.90
13389;DHT22;6764;53.250;10.410;2024-03-29T06:05:29;8.50;99.90
13389;DHT22;6764;53.250;10.410;2024-03-29T06:07:55;8.60;99.90
13389;DHT22;6764;53.250;10.410;2024-03-29T06:10:21;8.70;99.90
13389;DHT22;6764;53.250;10.410;2024-03-29T06:12:46;8.70;99.90
13389;DHT22;6764;53.250;10.410;2024-03-29T06:15:12;8.70;99.90
13389;DHT22;6764;53.250;10.410;2024-03-29T06:17:56;8.80;99.90
13389;DHT22;6764;53.250;10.410;2024-03-29T06:20:23;8.70;99.90
13389;DHT22;6764;53.250;10.410;2024-03-29T06:22:48;8.80;99.90
13389;DHT22;6764;53.250;10.410;2024-03-29T06:25:14;8.90;99.90
13389;DHT22;6764;53.250;10.410;2024-03-29T06:27:40;8.90;99.90
13389;DHT22;6764;53.250;10.410;2024-03-29T06:30:09;8.90;99.90
13389;DHT22;6764;53.250;10.410;2024-03-29T06:32:35;9.00;99.90
13389;DHT22;6764;53.250;10.410;2024-03-29T06:35:01;9.10;99.90
13389;DHT22;6764;53.250;10.410;2024-03-29T06:37:27;9.10;99.90
13389;DHT22;6764;53.250;10.410;2024-03-29T06:39:54;9.10;99.90
13389;DHT22;6764;53.250;10.410;2024-03-29T06:42:20;9.10;99.90
13389;DHT22;6764;53.250;10.410;2024-03-29T06:44:46;9.20;99.90
13389;DHT22;6764;53.250;10.410;2024-03-29T06:47:11;9.20;99.90
13389;DHT22;6764;53.250;10.410;2024-03-29T06:49:38;9.30;99.90
13389;DHT22;6764;53.250;10.410;2024-03-29T06:52:03;9.30;99.90
13389;DHT22;6764;53.250;10.410;2024-03-29T06:54:30;9.40;99.90
13389;DHT22;6764;53.250;10.410;2024-03-29T06:56:56;9.50;99.90
13389;DHT22;6764;53.250;10.410;2024-03-29T06:59:22;9.60;99.90
13389;DHT22;6764;53.250;10.410;2024-03-29T07:01:49;9.60;99.90
13389;DHT22;6764;53.250;10.410;2024-03-29T07:04:22;9.70;99.90
13389;DHT22;6764;53.250;10.410;2024-03-29T07:06:48;9.70;99.90
13389;DHT22;6764;53.250;10.410;2024-03-29T07:09:21;9.70;99.90
13389;DHT22;6764;53.250;10.410;2024-03-29T07:11:51;9.80;99.90
13389;DHT22;6764;53.250;10.410;2024-03-29T07:14:18;9.80;99.90
13389;DHT22;6764;53.250;10.410;2024-03-29T07:16:44;9.80;99.90
13389;DHT22;6764;53.250;10.410;2024-03-29T07:19:10;9.90;99.90
13389;DHT22;6764;53.250;10.410;2024-03-29T07:21:45;10.00;99.90
13389;DHT22;6764;53.250;10.410;2024-03-29T07:24:10;10.10;99.90
13389;DHT22;6764;53.250;10.410;2024-03-29T07:26:36;10.20;99.90
13389;DHT22;6764;53.250;10.410;2024-03-29T07:29:02;10.10;99.90
13389;DHT22;6764;53.250;10.410;2024-03-29T07:31:30;10.20;99.90
13389;DHT22;6764;53.250;10.410;2024-03-29T07:33:56;10.20;99.90
13389;DHT22;6764;53.250;10.410;2024-03-29T07:36:21;10.20;99.90
13389;DHT22;6764;53.250;10.410;2024-03-29T07:38:49;10.10;99.90
13389;DHT22;6764;53.250;10.410;2024-03-29T07:41:15;10.10;99.90
13389;DHT22;6764;53.250;10.410;2024-03-29T07:43:51;10.20;99.90
13389;DHT22;6764;53.250;10.410;2024-03-29T07:46:17;10.20;99.90
13389;DHT22;6764;53.250;10.410;2024-03-29T07:48:43;10.20;99.90
13389;DHT22;6764;53.250;10.410;2024-03-29T07:51:09;10.30;99.90
13389;DHT22;6764;53.250;10.410;2024-03-29T07:53:34;10.30;99.90
13389;DHT22;6764;53.250;10.410;2024-03-29T07:56:00;10.30;99.90
13389;DHT22;6764;53.250;10.410;2024-03-29T07:58:26;10.30;99.90
13389;DHT22;6764;53.250;10.410;2024-03-29T08:00:52;10.40;99.90
13389;DHT22;6764;53.250;10.410;2024-03-29T08:03:18;10.30;99.90
13389;DHT22;6764;53.250;10.410;2024-03-29T08:05:58;10.30;99.90
13389;DHT22;6764;53.250;10.410;2024-03-29T08:08:24;10.30;99.90
13389;DHT22;6764;53.250;10.410;2024-03-29T08:10:50;10.30;99.90
13389;DHT22;6764;53.250;10.410;2024-03-29T08:13:16;10.30;99.90
13389;DHT22;6764;53.250;10.410;2024-03-29T08:15:46;10.20;99.90
13389;DHT22;6764;53.250;10.410;2024-03-29T08:18:11;10.20;99.90
13389;DHT22;6764;53.250;10.410;2024-03-29T08:20:37;10.30;99.90
13389;DHT22;6764;53.250;10.410;2024-03-29T08:23:03;10.30;99.90
13389;DHT22;6764;53.250;10.410;2024-03-29T08:25:29;10.20;99.90
13389;DHT22;6764;53.250;10.410;2024-03-29T08:27:55;10.20;99.90
13389;DHT22;6764;53.250;10.410;2024-03-29T08:30:27;10.10;99.90
13389;DHT22;6764;53.250;10.410;2024-03-29T08:32:57;10.20;99.90
13389;DHT22;6764;53.250;10.410;2024-03-29T08:35:25;10.20;99.90
13389;DHT22;6764;53.250;10.410;2024-03-29T08:37:50;10.20;99.90
13389;DHT22;6764;53.250;10.410;2024-03-29T08:40:16;10.30;99.90
13389;DHT22;6764;53.250;10.410;2024-03-29T08:42:43;10.30;99.90
13389;DHT22;6764;53.250;10.410;2024-03-29T08:45:08;10.40;99.90
13389;DHT22;6764;53.250;10.410;2024-03-29T08:47:35;10.40;99.90
13389;DHT22;6764;53.250;10.410;2024-03-29T08:50:01;10.40;99.90
13389;DHT22;6764;53.250;10.410;2024-03-29T08:52:29;10.60;99.90
13389;DHT22;6764;53.250;10.410;2024-03-29T08:54:54;10.60;99.90
13389;DHT22;6764;53.250;10.410;2024-03-29T08:57:20;10.80;99.90
13389;DHT22;6764;53.250;10.410;2024-03-29T08:59:46;10.90;99.90
13389;DHT22;6764;53.250;10.410;2024-03-29T09:02:11;10.90;99.90
13389;DHT22;6764;53.250;10.410;2024-03-29T09:04:37;11.00;99.90
13389;DHT22;6764;53.250;10.410;2024-03-29T09:07:02;11.00;99.90
13389;DHT22;6764;53.250;10.410;2024-03-29T09:09:32;10.90;99.90
13389;DHT22;6764;53.250;10.410;2024-03-29T09:11:58;10.70;99.90
13389;DHT22;6764;53.250;10.410;2024-03-29T09:14:24;10.60;99.90
13389;DHT22;6764;53.250;10.410;2024-03-29T09:16:50;10.50;99.90
13389;DHT22;6764;53.250;10.410;2024-03-29T09:19:16;10.50;99.90
13389;DHT22;6764;53.250;10.410;2024-03-29T09:21:41;10.50;99.90
13389;DHT22;6764;53.250;10.410;2024-03-29T09:24:07;10.50;99.90
13389;DHT22;6764;53.250;10.410;2024-03-29T09:26:33;10.50;99.90
13389;DHT22;6764;53.250;10.410;2024-03-29T09:28:59;10.40;99.90
13389;DHT22;6764;53.250;10.410;2024-03-29T09:31:25;10.40;99.90
13389;DHT22;6764;53.250;10.410;2024-03-29T09:33:50;10.40;99.90
13389;DHT22;6764;53.250;10.410;2024-03-29T09:36:22;10.20;99.90
13389;DHT22;6764;53.250;10.410;2024-03-29T09:38:49;10.10;99.90
13389;DHT22;6764;53.250;10.410;2024-03-29T09:41:17;10.20;99.90
13389;DHT22;6764;53.250;10.410;2024-03-29T09:43:45;10.10;99.90
13389;DHT22;6764;53.250;10.410;2024-03-29T09:46:12;10.20;99.90
13389;DHT22;6764;53.250;10.410;2024-03-29T09:48:43;10.10;99.90
13389;DHT22;6764;53.250;10.410;2024-03-29T09:51:11;10.20;99.90
13389;DHT22;6764;53.250;10.410;2024-03-29T09:53:41;10.20;99.90
13389;DHT22;6764;53.250;10.410;2024-03-29T09:56:08;10.20;99.90
13389;DHT22;6764;53.250;10.410;2024-03-29T09:58:38;10.30;99.90
13389;DHT22;6764;53.250;10.410;2024-03-29T10:01:05;10.30;99.90
13389;DHT22;6764;53.250;10.410;2024-03-29T10:03:35;10.30;99.90
13389;DHT22;6764;53.250;10.410;2024-03-29T10:06:01;10.30;99.90
13389;DHT22;6764;53.250;10.410;2024-03-29T10:08:29;10.20;99.90
13389;DHT22;6764;53.250;10.410;2024-03-29T10:10:59;10.30;99.90
13389;DHT22;6764;53.250;10.410;2024-03-29T10:13:25;10.00;99.90
13389;DHT22;6764;53.250;10.410;2024-03-29T10:15:54;10.10;99.90
13389;DHT22;6764;53.250;10.410;2024-03-29T10:18:23;10.10;99.90
13389;DHT22;6764;53.250;10.410;2024-03-29T10:23:26;10.20;99.90
13389;DHT22;6764;53.250;10.410;2024-03-29T10:25:52;10.30;99.90
13389;DHT22;6764;53.250;10.410;2024-03-29T10:28:19;10.30;99.90
13389;DHT22;6764;53.250;10.410;2024-03-29T10:30:44;10.30;99.90
13389;DHT22;6764;53.250;10.410;2024-03-29T10:33:11;10.30;99.90
13389;DHT22;6764;53.250;10.410;2024-03-29T10:35:37;10.40;99.90
13389;DHT22;6764;53.250;10.410;2024-03-29T10:38:03;10.40;99.90
13389;DHT22;6764;53.250;10.410;2024-03-29T10:40:30;10.30;99.90
13389;DHT22;6764;53.250;10.410;2024-03-29T10:42:56;10.30;99.90
13389;DHT22;6764;53.250;10.410;2024-03-29T10:45:23;10.40;99.90
13389;DHT22;6764;53.250;10.410;2024-03-29T10:47:52;10.40;99.90
13389;DHT22;6764;53.250;10.410;2024-03-29T10:50:19;10.40;99.90
13389;DHT22;6764;53.250;10.410;2024-03-29T10:52:48;10.50;99.90
13389;DHT22;6764;53.250;10.410;2024-03-29T10:55:14;10.50;99.90
13389;DHT22;6764;53.250;10.410;2024-03-29T10:57:41;10.50;99.90
13389;DHT22;6764;53.250;10.410;2024-03-29T11:00:15;10.50;99.90
13389;DHT22;6764;53.250;10.410;2024-03-29T11:02:51;10.60;99.90
13389;DHT22;6764;53.250;10.410;2024-03-29T11:05:21;10.70;99.90
13389;DHT22;6764;53.250;10.410;2024-03-29T11:07:48;10.80;99.90
13389;DHT22;6764;53.250;10.410;2024-03-29T11:10:20;11.00;99.90
13389;DHT22;6764;53.250;10.410;2024-03-29T11:13:10;11.00;99.90
13389;DHT22;6764;53.250;10.410;2024-03-29T11:15:38;11.30;99.90
13389;DHT22;6764;53.250;10.410;2024-03-29T11:18:08;11.50;99.90
13389;DHT22;6764;53.250;10.410;2024-03-29T11:20:34;11.60;99.90
13389;DHT22;6764;53.250;10.410;2024-03-29T11:23:09;12.20;99.90
13389;DHT22;6764;53.250;10.410;2024-03-29T11:25:43;12.40;99.90
13389;DHT22;6764;53.250;10.410;2024-03-29T11:28:12;12.60;99.90
13389;DHT22;6764;53.250;10.410;2024-03-29T11:30:47;12.80;99.90
13389;DHT22;6764;53.250;10.410;2024-03-29T11:36:12;13.00;99.90
13389;DHT22;6764;53.250;10.410;2024-03-29T11:38:39;13.10;99.90
13389;DHT22;6764;53.250;10.410;2024-03-29T11:43:38;13.30;99.90
13389;DHT22;6764;53.250;10.410;2024-03-29T11:46:06;13.20;99.90
13389;DHT22;6764;53.250;10.410;2024-03-29T11:48:32;13.10;99.90
13389;DHT22;6764;53.250;10.410;2024-03-29T11:50:59;12.80;99.90
13389;DHT22;6764;53.250;10.410;2024-03-29T11:53:25;12.80;99.90
13389;DHT22;6764;53.250;10.410;2024-03-29T11:55:51;12.80;99.90
13389;DHT22;6764;53.250;10.410;2024-03-29T11:58:23;12.80;99.90
13389;DHT22;6764;53.250;10.410;2024-03-29T12:00:49;12.80;99.90
13389;DHT22;6764;53.250;10.410;2024-03-29T12:03:16;12.80;99.90
13389;DHT22;6764;53.250;10.410;2024-03-29T12:05:46;12.90;99.90
13389;DHT22;6764;53.250;10.410;2024-03-29T12:08:14;12.90;99.90
13389;DHT22;6764;53.250;10.410;2024-03-29T12:10:40;12.90;99.90
13389;DHT22;6764;53.250;10.410;2024-03-29T12:13:06;12.80;99.90
13389;DHT22;6764;53.250;10.410;2024-03-29T12:15:32;12.90;99.90
13389;DHT22;6764;53.250;10.410;2024-03-29T12:18:03;12.90;99.90
13389;DHT22;6764;53.250;10.410;2024-03-29T12:20:30;12.80;99.90
13389;DHT22;6764;53.250;10.410;2024-03-29T12:22:58;13.00;99.90
13389;DHT22;6764;53.250;10.410;2024-03-29T12:25:24;13.10;99.90
13389;DHT22;6764;53.250;10.410;2024-03-29T12:27:49;13.10;99.90
13389;DHT22;6764;53.250;10.410;2024-03-29T12:30:15;13.10;99.90
13389;DHT22;6764;53.250;10.410;2024-03-29T12:32:41;13.10;99.90
13389;DHT22;6764;53.250;10.410;2024-03-29T12:35:11;13.10;99.90
13389;DHT22;6764;53.250;10.410;2024-03-29T12:37:37;13.10;99.90
13389;DHT22;6764;53.250;10.410;2024-03-29T12:40:06;13.10;99.90
13389;DHT22;6764;53.250;10.410;2024-03-29T12:42:39;13.10;99.90
13389;DHT22;6764;53.250;10.410;2024-03-29T12:45:05;13.00;99.90
13389;DHT22;6764;53.250;10.410;2024-03-29T12:47:32;13.10;99.90
13389;DHT22;6764;53.250;10.410;2024-03-29T12:49:59;13.20;99.90
13389;DHT22;6764;53.250;10.410;2024-03-29T12:52:26;13.30;99.90
13389;DHT22;6764;53.250;10.410;2024-03-29T12:54:52;13.40;99.90
13389;DHT22;6764;53.250;10.410;2024-03-29T12:57:18;13.40;99.90
13389;DHT22;6764;53.250;10.410;2024-03-29T12:59:44;13.50;99.90
13389;DHT22;6764;53.250;10.410;2024-03-29T13:02:12;13.60;99.90
13389;DHT22;6764;53.250;10.410;2024-03-29T13:04:38;13.60;99.90
13389;DHT22;6764;53.250;10.410;2024-03-29T13:07:09;13.60;99.90
13389;DHT22;6764;53.250;10.410;2024-03-29T13:09:34;13.50;99.90
13389;DHT22;6764;53.250;10.410;2024-03-29T13:12:00;13.60;99.90
13389;DHT22;6764;53.250;10.410;2024-03-29T13:14:26;13.60;99.90
13389;DHT22;6764;53.250;10.410;2024-03-29T13:16:51;13.50;99.90
13389;DHT22;6764;53.250;10.410;2024-03-29T13:19:17;13.50;99.90
13389;DHT22;6764;53.250;10.410;2024-03-29T13:21:42;13.50;99.90
13389;DHT22;6764;53.250;10.410;2024-03-29T13:24:08;13.40;99.90
13389;DHT22;6764;53.250;10.410;2024-03-29T13:26:33;13.50;99.90
13389;DHT22;6764;53.250;10.410;2024-03-29T13:28:59;13.70;99.90
13389;DHT22;6764;53.250;10.410;2024-03-29T13:31:25;13.60;99.90
13389;DHT22;6764;53.250;10.410;2024-03-29T13:33:53;13.70;99.90
13389;DHT22;6764;53.250;10.410;2024-03-29T13:36:29;13.70;99.90
13389;DHT22;6764;53.250;10.410;2024-03-29T13:38:55;13.60;99.90
13389;DHT22;6764;53.250;10.410;2024-03-29T13:41:21;13.50;99.90
13389;DHT22;6764;53.250;10.410;2024-03-29T13:43:47;13.50;99.90
13389;DHT22;6764;53.250;10.410;2024-03-29T13:46:12;13.50;99.90
13389;DHT22;6764;53.250;10.410;2024-03-29T13:48:38;13.40;99.90
13389;DHT22;6764;53.250;10.410;2024-03-29T13:51:06;13.30;99.90
13389;DHT22;6764;53.250;10.410;2024-03-29T13:53:32;13.30;99.90
13389;DHT22;6764;53.250;10.410;2024-03-29T13:56:01;13.30;99.90
13389;DHT22;6764;53.250;10.410;2024-03-29T13:58:29;13.30;99.90
13389;DHT22;6764;53.250;10.410;2024-03-29T14:00:55;13.20;99.90
13389;DHT22;6764;53.250;10.410;2024-03-29T14:03:22;13.20;99.90
13389;DHT22;6764;53.250;10.410;2024-03-29T14:05:50;13.10;99.90
13389;DHT22;6764;53.250;10.410;2024-03-29T14:08:16;12.90;99.90
13389;DHT22;6764;53.250;10.410;2024-03-29T14:10:41;13.00;99.90
13389;DHT22;6764;53.250;10.410;2024-03-29T14:13:08;13.20;99.90
13389;DHT22;6764;53.250;10.410;2024-03-29T14:15:34;13.40;99.90
13389;DHT22;6764;53.250;10.410;2024-03-29T14:18:00;13.60;99.90
13389;DHT22;6764;53.250;10.410;2024-03-29T14:20:26;13.60;99.90
13389;DHT22;6764;53.250;10.410;2024-03-29T14:22:51;13.60;99.90
13389;DHT22;6764;53.250;10.410;2024-03-29T14:25:21;13.70;99.90
13389;DHT22;6764;53.250;10.410;2024-03-29T14:27:47;13.70;99.90
13389;DHT22;6764;53.250;10.410;2024-03-29T14:30:13;13.80;99.90
13389;DHT22;6764;53.250;10.410;2024-03-29T14:32:39;13.90;99.90
13389;DHT22;6764;53.250;10.410;2024-03-29T14:35:05;13.90;99.90
13389;DHT22;6764;53.250;10.410;2024-03-29T14:37:31;14.00;99.90
13389;DHT22;6764;53.250;10.410;2024-03-29T14:39:56;14.10;99.90
13389;DHT22;6764;53.250;10.410;2024-03-29T14:42:22;14.20;99.90
13389;DHT22;6764;53.250;10.410;2024-03-29T14:44:48;14.20;99.90
13389;DHT22;6764;53.250;10.410;2024-03-29T14:47:14;14.10;99.90
13389;DHT22;6764;53.250;10.410;2024-03-29T14:49:42;14.20;99.90
13389;DHT22;6764;53.250;10.410;2024-03-29T14:52:08;14.30;99.90
13389;DHT22;6764;53.250;10.410;2024-03-29T14:54:33;14.40;99.90
13389;DHT22;6764;53.250;10.410;2024-03-29T14:56:59;14.50;99.90
13389;DHT22;6764;53.250;10.410;2024-03-29T14:59:25;14.50;99.90
13389;DHT22;6764;53.250;10.410;2024-03-29T15:01:51;14.50;99.90
13389;DHT22;6764;53.250;10.410;2024-03-29T15:04:17;14.70;99.90
13389;DHT22;6764;53.250;10.410;2024-03-29T15:06:42;14.60;99.90
13389;DHT22;6764;53.250;10.410;2024-03-29T15:09:08;14.60;99.90
13389;DHT22;6764;53.250;10.410;2024-03-29T15:11:33;14.60;99.90
13389;DHT22;6764;53.250;10.410;2024-03-29T15:14:00;14.50;99.90
13389;DHT22;6764;53.250;10.410;2024-03-29T15:16:26;14.50;99.90
13389;DHT22;6764;53.250;10.410;2024-03-29T15:18:53;14.60;99.90
13389;DHT22;6764;53.250;10.410;2024-03-29T15:21:21;14.70;99.90
13389;DHT22;6764;53.250;10.410;2024-03-29T15:23:48;14.70;99.90
13389;DHT22;6764;53.250;10.410;2024-03-29T15:26:14;14.70;99.90
13389;DHT22;6764;53.250;10.410;2024-03-29T15:28:41;14.60;99.90
13389;DHT22;6764;53.250;10.410;2024-03-29T15:31:39;14.60;99.90
13389;DHT22;6764;53.250;10.410;2024-03-29T15:34:07;14.70;99.90
13389;DHT22;6764;53.250;10.410;2024-03-29T15:36:34;14.60;99.90
13389;DHT22;6764;53.250;10.410;2024-03-29T15:39:01;14.70;99.90
13389;DHT22;6764;53.250;10.410;2024-03-29T15:41:32;14.70;99.90
13389;DHT22;6764;53.250;10.410;2024-03-29T15:43:58;14.70;99.90